Time;durP1;ratioP1;P1;durP2;ratioP2;P2;SDS_P1;SDS_P2;PMS_P1;PMS_P2;Temp;Humidity;BMP_temperature;BMP_pressure;BME280_temperature;BME280_humidity;BME280_pressure;Samples;Min_cycle;Max_cycle;Signal;HPM_P1;HPM_P2
2021/12/15 00:01:17;;;;;;;14.18;10.23;;;;;;;17.95;31.24;99961.38;5087017;28;20028;-63
2021/12/15 00:03:43;;;;;;;15.20;9.90;;;;;;;17.95;31.51;99958.69;5087496;28;20161;-65
2021/12/15 00:06:17;;;;;;;13.13;10.18;;;;;;;17.96;31.42;99964.88;5087233;28;20129;-64
2021/12/15 00:08:46;;;;;;;14.43;9.80;;;;;;;17.96;31.40;99957.69;5087110;28;20115;-64
2021/12/15 00:11:11;;;;;;;16.48;10.90;;;;;;;17.93;31.50;99955.34;5087103;28;20093;-62
2021/12/15 00:13:39;;;;;;;14.73;10.88;;;;;;;17.93;31.59;99951.84;5072218;28;20017;-68
2021/12/15 00:16:08;;;;;;;16.50;11.00;;;;;;;17.92;31.56;99950.16;5067080;28;20074;-67
2021/12/15 00:18:33;;;;;;;15.07;11.23;;;;;;;17.91;31.60;99941.25;5066928;28;20016;-63
2021/12/15 00:21:00;;;;;;;18.38;10.23;;;;;;;17.92;31.72;99945.63;5066986;28;20017;-63
2021/12/15 00:23:26;;;;;;;14.82;10.18;;;;;;;17.94;31.53;99935.59;5066822;28;20029;-62
2021/12/15 00:25:52;;;;;;;16.70;10.57;;;;;;;17.98;31.78;99945.03;5067048;28;20024;-65
2021/12/15 00:28:17;;;;;;;13.85;10.02;;;;;;;18.01;31.57;99941.19;5066922;28;20134;-65
2021/12/15 00:30:44;;;;;;;15.52;10.45;;;;;;;18.03;31.54;99933.84;5067110;28;20024;-67
2021/12/15 00:33:11;;;;;;;17.67;11.15;;;;;;;18.04;31.41;99937.34;5072178;28;20031;-68
2021/12/15 00:35:37;;;;;;;14.85;10.35;;;;;;;18.04;31.64;99926.63;5086454;28;20053;-65
2021/12/15 00:38:06;;;;;;;14.20;10.77;;;;;;;18.06;31.43;99938.03;5086778;28;20122;-66
2021/12/15 00:40:32;;;;;;;15.02;10.18;;;;;;;18.07;31.55;99935.19;5086869;28;20040;-65
2021/12/15 00:42:58;;;;;;;15.63;9.98;;;;;;;18.08;31.13;99931.53;5086885;28;20137;-62
2021/12/15 00:45:24;;;;;;;14.82;9.98;;;;;;;18.09;31.37;99935.03;5086776;28;20030;-55
2021/12/15 00:47:50;;;;;;;16.42;11.18;;;;;;;18.09;31.32;99933.19;5086598;28;20218;-60
2021/12/15 00:50:19;;;;;;;17.63;11.25;;;;;;;18.10;31.08;99937.53;5086680;28;20039;-61
2021/12/15 00:52:47;;;;;;;17.75;10.88;;;;;;;18.10;31.28;99940.22;5086687;28;20024;-64
2021/12/15 00:55:17;;;;;;;17.83;11.25;;;;;;;18.11;31.06;99941.06;5088435;28;20218;-61
2021/12/15 00:57:44;;;;;;;16.48;11.30;;;;;;;18.12;31.14;99932.03;5090113;28;20239;-61
2021/12/15 01:00:14;;;;;;;19.52;12.55;;;;;;;18.13;31.05;99939.06;5090125;28;20097;-58
2021/12/15 01:02:40;;;;;;;16.98;11.00;;;;;;;18.13;31.22;99928.38;5089993;28;20210;-62
2021/12/15 01:05:08;;;;;;;20.30;11.93;;;;;;;18.14;31.38;99928.19;5090123;28;20090;-61
2021/12/15 01:07:34;;;;;;;20.05;11.80;;;;;;;18.14;31.49;99924.69;5089909;28;20059;-60
2021/12/15 01:10:00;;;;;;;20.35;11.25;;;;;;;18.15;30.98;99915.66;5090005;28;20083;-69
2021/12/15 01:20:56;;;;;;;18.23;10.50;;;;;;;18.17;30.94;99915.47;4989617;28;20219;-60
2021/12/15 01:23:25;;;;;;;18.17;11.00;;;;;;;18.18;31.18;99909.13;5075890;28;20043;-60
2021/12/15 01:25:59;;;;;;;18.13;10.80;;;;;;;18.20;31.13;99907.13;5069610;28;20020;-58
2021/12/15 01:28:25;;;;;;;20.85;11.38;;;;;;;18.21;31.22;99898.09;5069638;28;20016;-63
2021/12/15 01:30:53;;;;;;;21.02;10.93;;;;;;;18.22;31.22;99895.25;5069412;28;20084;-62
2021/12/15 01:33:19;;;;;;;16.73;10.70;;;;;;;18.24;31.17;99893.25;5070677;28;20020;-62
2021/12/15 01:35:48;;;;;;;20.35;11.70;;;;;;;18.25;31.31;99894.06;5089488;28;20241;-52
2021/12/15 01:38:16;;;;;;;18.42;10.73;;;;;;;18.25;31.06;99900.28;5089393;28;20218;-59
2021/12/15 01:40:44;;;;;;;16.33;10.20;;;;;;;18.28;31.29;99896.44;5089544;28;20023;-59
2021/12/15 01:43:22;;;;;;;17.35;11.00;;;;;;;18.30;31.11;99894.44;5089273;28;20174;-60
2021/12/15 01:48:37;;;;;;;19.27;11.32;;;;;;;18.29;31.14;99885.56;5087435;28;20250;-55
2021/12/15 01:51:06;;;;;;;14.73;9.35;;;;;;;18.30;31.37;99886.41;5089109;28;20091;-59
2021/12/15 01:53:33;;;;;;;20.05;13.10;;;;;;;18.30;31.10;99894.44;5089042;28;20044;-58
2021/12/15 01:55:58;;;;;;;18.50;10.70;;;;;;;18.32;31.18;99888.91;5089214;28;20032;-59
2021/12/15 01:58:24;;;;;;;22.63;11.73;;;;;;;18.28;30.91;99886.56;5089152;28;20046;-61
2021/12/15 02:00:56;;;;;;;17.70;11.30;;;;;;;18.30;31.03;99892.63;5089031;28;20044;-59
2021/12/15 02:03:22;;;;;;;19.48;12.02;;;;;;;18.29;31.22;99888.25;5089102;28;20024;-59
2021/12/15 02:05:48;;;;;;;17.80;10.65;;;;;;;18.29;31.17;99888.25;5088961;28;20016;-59
2021/12/15 02:08:14;;;;;;;15.48;9.57;;;;;;;18.28;31.24;99885.72;5088968;28;20039;-56
2021/12/15 02:10:42;;;;;;;22.92;12.18;;;;;;;18.26;31.08;99883.22;5088906;28;20032;-59
2021/12/15 02:13:12;;;;;;;16.08;10.88;;;;;;;18.27;31.01;99879.53;5088719;28;20031;-59
2021/12/15 02:15:42;;;;;;;16.77;11.63;;;;;;;18.27;30.88;99884.03;5088862;28;20029;-59
2021/12/15 02:18:11;;;;;;;17.05;11.20;;;;;;;18.27;30.94;99892.06;5088729;28;20032;-59
2021/12/15 02:20:40;;;;;;;14.45;9.68;;;;;;;18.27;31.05;99892.94;5088746;28;20213;-60
2021/12/15 02:23:10;;;;;;;14.48;9.90;;;;;;;18.27;30.91;99889.41;5081487;28;20019;-60
2021/12/15 02:25:36;;;;;;;13.68;10.63;;;;;;;18.26;31.17;99880.53;5088717;28;20030;-62
2021/12/15 02:28:05;;;;;;;16.52;10.70;;;;;;;18.28;30.93;99893.75;5088479;28;20024;-59
2021/12/15 02:38:33;;;;;;;14.02;9.85;;;;;;;18.25;30.95;99881.53;5070364;28;20051;-59
2021/12/15 02:41:07;;;;;;;14.18;9.45;;;;;;;18.25;30.87;99881.53;5068278;28;20017;-59
2021/12/15 02:43:33;;;;;;;12.98;9.48;;;;;;;18.25;30.91;99878.84;5070108;28;20111;-60
2021/12/15 02:45:59;;;;;;;15.60;9.57;;;;;;;18.26;31.01;99887.72;5088263;28;20024;-60
2021/12/15 02:48:25;;;;;;;13.93;9.55;;;;;;;18.25;30.99;99880.69;5088168;28;20114;-60
2021/12/15 02:50:51;;;;;;;13.95;9.10;;;;;;;18.26;30.87;99883.22;5088110;28;20089;-60
2021/12/15 02:53:17;;;;;;;15.02;10.32;;;;;;;18.27;30.87;99884.03;5086747;28;20138;-57
2021/12/15 02:55:43;;;;;;;14.70;9.43;;;;;;;18.27;30.98;99886.72;5086474;28;20022;-59
2021/12/15 02:58:09;;;;;;;14.73;9.52;;;;;;;18.26;30.99;99885.91;5086191;28;20020;-60
2021/12/15 03:00:52;;;;;;;15.77;10.18;;;;;;;18.25;30.92;99884.22;5071780;28;20108;-60
2021/12/15 03:06:19;;;;;;;13.27;8.85;;;;;;;18.25;30.93;99878.00;5067870;28;20043;-61
2021/12/15 03:16:42;;;;;;;14.93;7.88;;;;;;;18.27;30.79;99868.81;5067712;28;20123;-59
2021/12/15 03:19:08;;;;;;;13.98;9.25;;;;;;;18.26;30.84;99879.69;5082190;28;20024;-59
2021/12/15 03:21:34;;;;;;;12.77;9.23;;;;;;;18.25;31.05;99883.34;5087646;28;20043;-60
2021/12/15 03:24:07;;;;;;;12.98;8.93;;;;;;;18.23;30.95;99875.50;5087555;28;20020;-60
2021/12/15 03:26:40;;;;;;;14.13;7.97;;;;;;;18.23;30.92;99870.16;5087932;28;20008;-61
2021/12/15 03:35:01;;;;;;;11.60;7.38;;;;;;;18.21;31.13;99872.13;5082974;28;20086;-59
2021/12/15 03:37:29;;;;;;;14.93;8.57;;;;;;;18.22;30.90;99876.50;5067387;28;20048;-60
2021/12/15 03:40:17;;;;;;;10.63;7.05;;;;;;;18.22;31.09;99873.81;5076630;28;20028;-61
2021/12/15 03:42:46;;;;;;;12.68;8.18;;;;;;;18.24;31.08;99873.66;5087433;28;20103;-61
2021/12/15 03:45:16;;;;;;;9.68;7.22;;;;;;;18.24;31.04;99865.63;5087520;28;20088;-61
2021/12/15 03:47:45;;;;;;;12.88;7.63;;;;;;;18.23;31.12;99869.31;5082233;28;20032;-60
2021/12/15 03:50:13;;;;;;;12.30;8.48;;;;;;;18.23;30.91;99870.16;5084547;28;20031;-60
2021/12/15 03:52:39;;;;;;;10.80;7.63;;;;;;;18.25;30.88;99876.19;5087497;28;20008;-60
2021/12/15 03:55:08;;;;;;;10.10;7.15;;;;;;;18.26;31.04;99859.09;5087438;28;20012;-61
2021/12/15 03:57:34;;;;;;;9.40;6.82;;;;;;;18.29;30.78;99861.47;5085704;28;20012;-60
2021/12/15 04:00:00;;;;;;;12.20;8.00;;;;;;;18.25;30.98;99862.78;5087356;28;20036;-58
2021/12/15 04:02:26;;;;;;;11.18;7.18;;;;;;;18.25;31.12;99859.25;5076949;28;20314;-61
2021/12/15 04:04:53;;;;;;;11.55;8.30;;;;;;;18.23;31.06;99863.97;5067217;28;20234;-59
2021/12/15 04:07:21;;;;;;;11.98;7.53;;;;;;;18.23;31.11;99855.94;5085045;28;20240;-60
2021/12/15 04:09:48;;;;;;;10.10;6.78;;;;;;;18.23;30.83;99853.25;5086634;28;20025;-62
2021/12/15 04:12:14;;;;;;;10.57;7.07;;;;;;;18.24;31.06;99855.75;5086963;28;20240;-59
2021/12/15 04:14:45;;;;;;;9.77;6.82;;;;;;;18.24;31.02;99857.56;5087171;28;20024;-58
2021/12/15 04:17:30;;;;;;;11.15;6.78;;;;;;;18.23;31.01;99845.22;5086696;28;20243;-59
2021/12/15 04:20:17;;;;;;;9.95;6.78;;;;;;;18.21;30.89;99842.69;5079313;28;20068;-59
2021/12/15 04:22:43;;;;;;;10.05;7.22;;;;;;;18.22;31.05;99852.38;5086022;28;20035;-58
2021/12/15 04:25:13;;;;;;;8.98;5.63;;;;;;;18.23;30.86;99848.72;5066973;28;20028;-60
2021/12/15 04:27:40;;;;;;;8.93;5.93;;;;;;;18.23;30.95;99843.34;5070247;28;20039;-59
2021/12/15 04:30:09;;;;;;;10.60;6.55;;;;;;;18.24;30.82;99844.19;5074139;28;20025;-59
2021/12/15 04:32:41;;;;;;;9.55;6.22;;;;;;;18.24;30.83;99839.69;5070615;28;20082;-60
2021/12/15 04:35:08;;;;;;;10.05;6.75;;;;;;;18.25;30.91;99830.66;5070603;28;20024;-61
2021/12/15 04:37:34;;;;;;;9.25;6.28;;;;;;;18.28;30.90;99834.81;5070593;28;20055;-60
2021/12/15 04:40:00;;;;;;;10.38;5.95;;;;;;;18.28;30.78;99830.31;5083046;28;20141;-59
2021/12/15 04:42:26;;;;;;;9.95;6.07;;;;;;;18.27;30.86;99838.50;5090505;28;20040;-58
2021/12/15 04:44:56;;;;;;;10.05;6.40;;;;;;;18.28;30.91;99824.13;5090587;28;20075;-62
2021/12/15 04:47:23;;;;;;;9.82;5.55;;;;;;;18.27;31.03;99823.28;5088710;28;20081;-59
2021/12/15 04:49:53;;;;;;;9.50;6.32;;;;;;;18.26;30.92;99829.66;5088834;28;20047;-58
2021/12/15 04:52:22;;;;;;;7.82;5.75;;;;;;;18.25;30.98;99825.28;5090203;28;20036;-60
2021/12/15 04:54:49;;;;;;;9.77;6.53;;;;;;;18.27;30.88;99825.13;5090284;28;20038;-60
2021/12/15 04:57:17;;;;;;;8.30;5.45;;;;;;;18.28;30.68;99824.13;5088605;28;20029;-60
2021/12/15 04:59:43;;;;;;;9.77;5.97;;;;;;;18.27;30.91;99823.28;5090010;28;20052;-58
2021/12/15 05:02:10;;;;;;;8.88;6.10;;;;;;;18.29;30.83;99828.47;5088884;28;20035;-58
2021/12/15 05:04:36;;;;;;;8.32;5.60;;;;;;;18.28;30.85;99830.31;5082857;28;20268;-60
2021/12/15 05:07:02;;;;;;;8.43;5.43;;;;;;;18.29;30.75;99829.31;5089934;28;20024;-60
2021/12/15 05:09:29;;;;;;;9.15;6.32;;;;;;;18.31;30.88;99831.81;5090241;28;20020;-60
2021/12/15 05:11:54;;;;;;;9.77;6.68;;;;;;;18.30;30.64;99831.00;5088299;28;20222;-60
2021/12/15 05:14:22;;;;;;;9.20;5.63;;;;;;;18.33;30.83;99831.66;5069789;28;20021;-60
2021/12/15 05:16:49;;;;;;;8.55;5.68;;;;;;;18.33;30.74;99831.66;5070008;28;20134;-59
2021/12/15 05:19:14;;;;;;;8.70;5.20;;;;;;;18.33;30.74;99828.97;5078505;28;20040;-59
2021/12/15 05:21:40;;;;;;;9.80;6.78;;;;;;;18.33;30.62;99821.78;5069425;28;20020;-59
2021/12/15 05:27:15;;;;;;;;;;;;;;;18.25;30.81;99833.31;5009423;28;20014;-59
2021/12/15 05:29:43;;;;;;;9.85;5.80;;;;;;;18.26;30.80;99831.47;5081045;28;19969;-59
2021/12/15 05:32:11;;;;;;;8.25;5.70;;;;;;;18.28;30.60;99838.38;5089365;28;20036;-61
2021/12/15 05:34:38;;;;;;;10.35;5.20;;;;;;;18.29;30.46;99836.50;5089416;28;20043;-59
2021/12/15 05:37:05;;;;;;;9.70;5.30;;;;;;;18.30;30.69;99822.97;5089406;28;20020;-61
2021/12/15 05:39:31;;;;;;;8.68;6.03;;;;;;;18.32;30.79;99829.97;5089441;28;20024;-62
2021/12/15 05:41:57;;;;;;;7.82;4.80;;;;;;;18.32;30.61;99827.28;5088711;28;20020;-60
2021/12/15 05:44:24;;;;;;;8.77;5.30;;;;;;;18.32;30.69;99827.28;5089462;28;20024;-60
2021/12/15 05:46:52;;;;;;;9.68;6.38;;;;;;;18.32;30.46;99814.75;5089192;28;20036;-59
2021/12/15 05:49:18;;;;;;;9.93;5.65;;;;;;;18.32;30.63;99814.75;5082772;28;20012;-59
2021/12/15 05:51:44;;;;;;;9.45;5.88;;;;;;;18.34;30.69;99822.63;5088876;28;20032;-58
2021/12/15 05:54:10;;;;;;;9.73;5.03;;;;;;;18.31;30.65;99823.78;5079874;28;20013;-58
2021/12/15 05:56:36;;;;;;;7.68;5.07;;;;;;;18.33;30.68;99826.28;5069177;28;20039;-61
2021/12/15 05:59:03;;;;;;;7.05;4.68;;;;;;;18.35;30.78;99829.66;5072081;28;20024;-60
2021/12/15 06:01:28;;;;;;;7.78;5.40;;;;;;;18.32;30.83;99828.16;5084411;28;20090;-62
2021/12/15 06:03:55;;;;;;;8.13;5.70;;;;;;;18.34;30.77;99833.34;5068548;28;20285;-61
2021/12/15 06:06:21;;;;;;;7.90;5.20;;;;;;;18.34;30.68;99831.50;5070692;28;20210;-62
2021/12/15 06:08:46;;;;;;;9.07;5.47;;;;;;;18.35;30.85;99840.38;5084646;28;20077;-62
2021/12/15 06:11:12;;;;;;;11.10;4.78;;;;;;;18.36;30.84;99829.50;5068689;28;20024;-59
2021/12/15 06:13:37;;;;;;;7.57;4.80;;;;;;;18.38;30.74;99838.19;5068533;28;20021;-61
2021/12/15 06:16:05;;;;;;;10.05;5.28;;;;;;;18.39;30.74;99833.69;5068720;28;20012;-59
2021/12/15 06:18:31;;;;;;;6.20;4.35;;;;;;;18.39;30.73;99829.16;5076440;28;20027;-59
2021/12/15 06:20:57;;;;;;;6.60;4.53;;;;;;;18.38;30.65;99827.47;5070098;28;20048;-61
2021/12/15 06:23:23;;;;;;;7.25;4.55;;;;;;;18.39;30.67;99831.00;5069543;28;20164;-61
2021/12/15 06:25:56;;;;;;;7.75;4.57;;;;;;;18.39;30.76;99829.16;5075118;28;20092;-61
2021/12/15 06:28:24;;;;;;;6.75;4.05;;;;;;;18.38;30.81;99816.75;5068483;28;20036;-61
2021/12/15 06:30:51;;;;;;;6.57;4.30;;;;;;;18.36;30.51;99821.47;5068464;28;20177;-59
2021/12/15 06:33:16;;;;;;;6.65;4.40;;;;;;;18.37;30.62;99827.66;5069431;28;21126;-58
2021/12/15 06:35:53;;;;;;;6.65;4.22;;;;;;;18.37;30.71;99822.28;5068470;28;20028;-60
2021/12/15 06:38:21;;;;;;;4.95;3.72;;;;;;;18.38;30.76;99829.31;5068073;28;20013;-58
2021/12/15 06:40:46;;;;;;;6.45;4.18;;;;;;;18.36;30.83;99826.81;5080138;28;20095;-61
2021/12/15 06:43:12;;;;;;;6.20;3.80;;;;;;;18.36;30.70;99816.13;5086501;28;20020;-59
2021/12/15 06:45:51;;;;;;;7.00;4.00;;;;;;;18.35;30.62;99817.13;5086599;28;20069;-57
2021/12/15 06:59:13;;;;;;;6.57;3.22;;;;;;;18.42;30.69;99819.97;5087780;28;20019;-61
2021/12/15 07:01:38;;;;;;;6.97;3.67;;;;;;;18.43;30.71;99814.44;5087591;28;20071;-60
2021/12/15 07:04:04;;;;;;;4.43;3.15;;;;;;;18.44;30.58;99821.47;5079288;28;20080;-60
2021/12/15 07:06:29;;;;;;;4.25;3.05;;;;;;;18.47;30.71;99820.28;5087559;28;20050;-60
2021/12/15 07:08:55;;;;;;;4.32;3.00;;;;;;;18.52;30.69;99842.06;5087670;28;20050;-60
2021/12/15 07:11:22;;;;;;;5.60;3.33;;;;;;;18.57;30.58;99830.84;5087728;28;20040;-60
2021/12/15 07:13:48;;;;;;;4.70;3.40;;;;;;;18.64;30.82;99829.19;5085504;28;20082;-59
2021/12/15 07:16:14;;;;;;;5.95;3.38;;;;;;;18.77;31.27;99831.38;5067969;28;20017;-59
2021/12/15 07:19:06;;;;;;;5.15;2.72;;;;;;;18.90;31.20;99837.06;5068899;28;20237;-60
2021/12/15 07:21:39;;;;;;;5.28;3.00;;;;;;;19.04;31.27;99832.09;5067600;28;20032;-60
2021/12/15 07:24:06;;;;;;;6.88;3.65;;;;;;;19.11;31.03;99830.38;5067438;28;20218;-59
2021/12/15 07:26:33;;;;;;;5.05;3.38;;;;;;;19.13;30.56;99828.38;5067587;28;20021;-60
2021/12/15 07:28:58;;;;;;;4.18;2.92;;;;;;;19.13;30.54;99838.25;5068518;28;20029;-60
2021/12/15 07:31:24;;;;;;;5.40;3.15;;;;;;;19.11;30.48;99834.94;5067366;28;20028;-60
2021/12/15 07:33:50;;;;;;;4.28;2.58;;;;;;;19.09;30.54;99843.13;5067191;28;20029;-60
2021/12/15 07:36:16;;;;;;;6.47;3.00;;;;;;;19.08;30.69;99840.63;5067352;28;20032;-60
2021/12/15 07:38:42;;;;;;;5.35;2.70;;;;;;;19.09;30.48;99848.50;5068393;28;20085;-60
2021/12/15 07:41:23;;;;;;;3.92;2.90;;;;;;;19.11;30.46;99846.47;5077077;28;20035;-60
2021/12/15 07:43:49;;;;;;;;;;;;;;;19.06;30.53;99848.81;5081390;28;20100;-54
2021/12/15 07:46:15;;;;;;;4.88;3.30;;;;;;;19.09;30.56;99847.66;5087481;28;19897;-60
2021/12/15 07:48:40;;;;;;;5.22;2.97;;;;;;;19.10;30.59;99843.97;5072357;28;20039;-61
2021/12/15 07:51:08;;;;;;;4.15;2.95;;;;;;;19.10;30.38;99843.97;5067163;28;20037;-61
2021/12/15 07:53:35;;;;;;;10.82;4.07;;;;;;;19.10;30.48;99849.34;5067205;28;20096;-60
2021/12/15 07:56:01;;;;;;;6.13;3.40;;;;;;;19.12;30.41;99850.00;5067121;28;20033;-60
2021/12/15 07:58:28;;;;;;;5.25;3.22;;;;;;;19.13;30.65;99849.84;5068143;28;20028;-61
2021/12/15 08:00:55;;;;;;;4.95;3.28;;;;;;;19.15;30.70;99847.81;5067047;28;20150;-61
2021/12/15 08:03:21;;;;;;;7.60;3.38;;;;;;;19.16;30.60;99849.50;5067058;28;20033;-61
2021/12/15 08:05:49;;;;;;;5.30;3.53;;;;;;;19.17;30.44;99839.59;5071248;28;20033;-59
2021/12/15 08:08:16;;;;;;;4.82;3.25;;;;;;;19.17;30.46;99843.13;5072126;28;20106;-61
2021/12/15 08:10:42;;;;;;;5.93;4.00;;;;;;;19.19;30.48;99838.41;5070895;28;20047;-58
2021/12/15 08:13:09;;;;;;;5.78;3.78;;;;;;;19.21;30.33;99835.59;5080690;28;20043;-61
2021/12/15 08:15:34;;;;;;;4.95;3.47;;;;;;;19.24;30.25;99831.72;5091131;28;20069;-61
2021/12/15 08:18:00;;;;;;;5.40;3.35;;;;;;;19.24;30.28;99823.66;5077449;28;20269;-55
2021/12/15 08:20:29;;;;;;;6.57;3.55;;;;;;;19.28;30.39;99830.38;5070847;28;20039;-61
2021/12/15 08:22:55;;;;;;;5.90;3.40;;;;;;;19.29;30.14;99835.56;5070667;28;20170;-60
2021/12/15 08:25:21;;;;;;;6.13;3.40;;;;;;;19.29;30.15;99834.72;5070944;28;20088;-59
2021/12/15 08:27:49;;;;;;;6.80;3.85;;;;;;;19.29;30.19;99832.88;5071820;28;20055;-61
2021/12/15 08:30:20;;;;;;;8.10;4.57;;;;;;;19.29;30.40;99832.88;5070822;28;20237;-60
2021/12/15 08:32:51;;;;;;;;;;;;;;;19.26;30.29;99821.66;5053538;28;20191;-58
2021/12/15 08:35:19;;;;;;;7.57;4.13;;;;;;;19.30;30.36;99825.69;5088382;28;19919;-59
2021/12/15 08:37:45;;;;;;;6.78;3.70;;;;;;;19.34;30.10;99824.31;5088658;28;20016;-59
2021/12/15 08:40:12;;;;;;;8.10;4.20;;;;;;;19.39;30.24;99826.50;5090559;28;20236;-60
2021/12/15 08:42:38;;;;;;;5.72;3.72;;;;;;;19.42;30.22;99837.72;5090511;28;20020;-60
2021/12/15 08:45:04;;;;;;;7.18;3.90;;;;;;;19.45;30.22;99831.16;5090386;28;20027;-60
2021/12/15 08:47:30;;;;;;;7.65;4.53;;;;;;;19.47;30.23;99830.00;5077554;28;20033;-58
2021/12/15 08:49:56;;;;;;;7.00;3.60;;;;;;;19.49;30.30;99827.13;5070385;28;20087;-58
2021/12/15 08:52:22;;;;;;;8.55;4.78;;;;;;;19.50;30.11;99813.53;5070129;28;20031;-55
2021/12/15 08:54:47;;;;;;;10.38;4.97;;;;;;;19.53;30.45;99823.09;5070268;28;20092;-60
2021/12/15 08:57:13;;;;;;;7.47;4.32;;;;;;;19.55;30.33;99818.41;5071133;28;20096;-61
2021/12/15 08:59:39;;;;;;;6.38;4.45;;;;;;;19.56;30.14;99816.53;5070102;28;20052;-61
2021/12/15 09:02:05;;;;;;;6.40;4.03;;;;;;;19.56;30.36;99806.63;5070010;28;20040;-58
2021/12/15 09:04:30;;;;;;;6.93;4.53;;;;;;;19.59;30.20;99806.28;5088132;28;20039;-59
2021/12/15 09:06:56;;;;;;;8.00;4.35;;;;;;;19.59;30.35;99800.91;5078834;28;20059;-58
2021/12/15 09:09:22;;;;;;;6.78;4.60;;;;;;;19.59;30.22;99805.47;5070062;28;20020;-59
2021/12/15 09:11:51;;;;;;;7.22;4.55;;;;;;;19.58;30.20;99809.16;5069838;28;20070;-60
2021/12/15 09:14:17;;;;;;;8.38;4.38;;;;;;;19.58;30.41;99803.78;5069934;28;20032;-56
2021/12/15 09:16:46;;;;;;;7.30;5.03;;;;;;;19.58;30.21;99803.78;5069169;28;20025;-57
2021/12/15 09:19:12;;;;;;;12.85;5.57;;;;;;;19.58;30.17;99793.06;5069885;28;20036;-61
2021/12/15 09:21:38;;;;;;;7.20;4.32;;;;;;;19.63;30.53;99802.25;5081836;28;20050;-60
2021/12/15 09:24:06;;;;;;;10.27;5.07;;;;;;;19.70;30.41;99804.25;5089545;28;20073;-61
2021/12/15 09:26:32;;;;;;;9.30;4.90;;;;;;;19.71;30.58;99804.06;5089748;28;20036;-60
2021/12/15 09:28:59;;;;;;;8.00;5.45;;;;;;;19.75;30.45;99799.19;5089581;28;20020;-61
2021/12/15 09:31:25;;;;;;;9.00;5.53;;;;;;;19.76;30.28;99790.97;5089414;28;20048;-60
2021/12/15 09:33:53;;;;;;;10.70;5.55;;;;;;;19.80;30.33;99802.19;5089419;28;20085;-61
2021/12/15 09:36:21;;;;;;;7.63;5.53;;;;;;;19.82;30.26;99786.75;5089534;28;20028;-60
2021/12/15 09:38:53;;;;;;;8.23;4.80;;;;;;;19.85;30.21;99793.59;5088621;28;20124;-67
2021/12/15 09:41:21;;;;;;;9.07;5.50;;;;;;;19.87;30.23;99788.94;5089421;28;20148;-58
2021/12/15 09:43:49;;;;;;;8.73;5.57;;;;;;;19.87;30.36;99781.69;5089107;28;20032;-60
2021/12/15 09:46:28;;;;;;;8.73;5.97;;;;;;;19.87;30.39;99780.88;5089469;28;20032;-62
2021/12/15 09:57:30;;;;;;;12.75;6.47;;;;;;;19.76;30.04;99765.97;5109541;28;20015;-62
2021/12/15 10:02:53;;;;;;;9.35;5.28;;;;;;;19.73;30.07;99753.72;5081353;28;20058;-60
2021/12/15 10:18:54;;;;;;;9.13;4.60;;;;;;;19.70;30.13;99737.97;5086293;28;20035;-61
2021/12/15 10:21:26;;;;;;;10.43;5.28;;;;;;;19.69;30.19;99738.97;5088328;28;20034;-58
2021/12/15 10:23:53;;;;;;;10.38;5.30;;;;;;;19.69;30.45;99730.09;5072200;28;20017;-59
2021/12/15 10:26:19;;;;;;;9.82;5.03;;;;;;;19.69;30.58;99730.09;5087502;28;20046;-60
2021/12/15 10:28:49;;;;;;;8.75;4.97;;;;;;;19.69;30.55;99732.78;5088103;28;20020;-60
2021/12/15 10:31:16;;;;;;;8.68;5.32;;;;;;;19.66;30.46;99731.28;5088525;28;20052;-60
2021/12/15 10:33:50;;;;;;;8.18;5.53;;;;;;;19.66;30.44;99739.31;5083490;28;20138;-62
2021/12/15 10:36:20;;;;;;;9.27;5.13;;;;;;;19.68;30.40;99737.31;5069379;28;20134;-60
2021/12/15 10:38:50;;;;;;;7.97;5.00;;;;;;;19.66;30.33;99728.59;5068149;28;20059;-59
2021/12/15 10:41:25;;;;;;;8.13;4.63;;;;;;;19.64;30.41;99730.59;5068172;28;20238;-59
2021/12/15 10:44:02;;;;;;;10.85;5.80;;;;;;;19.64;30.37;99722.56;5067954;28;20133;-56
2021/12/15 10:46:49;;;;;;;8.40;4.60;;;;;;;19.64;30.40;99726.09;5068207;28;20024;-61
2021/12/15 10:49:18;;;;;;;10.00;5.22;;;;;;;19.62;30.33;99727.28;5067732;28;20032;-59
2021/12/15 10:51:48;;;;;;;6.25;4.68;;;;;;;19.62;30.31;99727.28;5067955;28;20096;-60
2021/12/15 10:54:33;;;;;;;6.80;4.53;;;;;;;19.60;30.39;99726.63;5069298;28;20024;-61
2021/12/15 10:57:10;;;;;;;6.07;4.47;;;;;;;19.58;30.17;99731.31;5067968;28;20056;-60
2021/12/15 10:59:43;;;;;;;9.95;4.80;;;;;;;19.57;30.16;99727.78;5067823;28;20275;-60
2021/12/15 11:02:16;;;;;;;9.43;5.32;;;;;;;19.57;30.35;99717.06;5067459;28;20093;-59
2021/12/15 11:04:49;;;;;;;10.15;4.45;;;;;;;19.59;30.26;99733.00;5069080;28;20020;-62
2021/12/15 11:07:24;;;;;;;7.35;4.63;;;;;;;19.57;30.27;99729.66;5068019;28;20254;-61
2021/12/15 11:09:55;;;;;;;7.15;4.90;;;;;;;19.57;30.25;99729.66;5086364;28;20025;-61
2021/12/15 11:12:23;;;;;;;8.38;4.28;;;;;;;19.58;30.35;99724.09;5075292;28;20055;-60
2021/12/15 11:14:57;;;;;;;6.53;4.05;;;;;;;19.57;30.29;99725.09;5068838;28;20119;-60
2021/12/15 11:17:32;;;;;;;7.75;4.78;;;;;;;19.57;30.13;99729.66;5069507;28;20085;-61
2021/12/15 11:20:14;;;;;;;7.40;4.55;;;;;;;19.58;30.34;99725.97;5087411;28;20024;-62
2021/12/15 11:23:00;;;;;;;6.55;4.07;;;;;;;19.59;30.34;99733.00;5086577;28;20129;-62
2021/12/15 11:25:34;;;;;;;7.45;4.65;;;;;;;19.59;30.26;99728.44;5081035;28;20036;-59
2021/12/15 11:28:05;;;;;;;7.88;4.63;;;;;;;19.62;30.11;99728.09;5086853;28;20025;-62
2021/12/15 11:30:35;;;;;;;7.28;4.32;;;;;;;19.64;30.31;99728.78;5087103;28;20017;-62
2021/12/15 11:33:15;;;;;;;7.35;4.13;;;;;;;19.64;30.34;99728.78;5087049;28;20028;-61
2021/12/15 11:35:45;;;;;;;9.60;5.10;;;;;;;19.63;30.20;99737.84;5085737;28;20043;-62
2021/12/15 11:38:27;;;;;;;7.53;4.82;;;;;;;19.62;30.22;99722.75;5087180;28;20050;-61
2021/12/15 11:41:12;;;;;;;10.43;4.38;;;;;;;19.62;30.17;99729.97;5087162;28;20028;-62
2021/12/15 11:43:55;;;;;;;7.38;4.30;;;;;;;19.61;30.28;99739.03;5074868;28;20043;-62
2021/12/15 11:46:34;;;;;;;6.45;4.20;;;;;;;19.59;30.14;99724.94;5087424;28;20075;-61
2021/12/15 11:49:04;;;;;;;5.82;4.00;;;;;;;19.59;30.14;99724.94;5087013;28;20015;-61
2021/12/15 11:51:39;;;;;;;9.57;5.30;;;;;;;19.59;30.20;99724.94;5086664;28;20289;-62
2021/12/15 11:54:33;;;;;;;6.38;3.63;;;;;;;19.57;30.11;99725.09;5085405;28;20100;-62
2021/12/15 11:57:02;;;;;;;9.40;4.15;;;;;;;19.59;30.21;99727.63;5087321;28;20028;-61
2021/12/15 11:59:32;;;;;;;6.60;4.10;;;;;;;19.58;30.07;99728.66;5087194;28;20074;-61
2021/12/15 12:02:09;;;;;;;11.15;5.00;;;;;;;19.57;30.18;99729.66;5072627;28;20028;-62
2021/12/15 12:04:38;;;;;;;4.82;3.88;;;;;;;19.57;30.31;99738.53;5068331;28;20025;-60
2021/12/15 12:07:36;;;;;;;9.52;4.63;;;;;;;19.55;30.27;99735.22;5067079;28;20017;-62
2021/12/15 12:10:17;;;;;;;5.88;4.05;;;;;;;19.54;30.24;99732.69;5067025;28;20045;-62
2021/12/15 12:12:53;;;;;;;5.97;4.82;;;;;;;19.54;30.17;99735.34;5066752;28;20092;-61
2021/12/15 12:15:24;;;;;;;5.32;3.28;;;;;;;19.54;30.04;99735.34;5084288;28;20229;-59
2021/12/15 12:17:54;;;;;;;5.20;3.65;;;;;;;19.54;30.10;99730.84;5086870;28;20028;-62
2021/12/15 12:20:29;;;;;;;5.85;3.65;;;;;;;19.51;30.24;99734.69;5087278;28;20236;-61
2021/12/15 12:22:57;;;;;;;5.82;3.67;;;;;;;19.52;30.10;99736.38;5087256;28;20129;-62
2021/12/15 12:25:26;;;;;;;7.70;4.25;;;;;;;19.51;30.10;99734.69;5068589;28;20119;-61
2021/12/15 12:27:54;;;;;;;7.55;4.50;;;;;;;19.50;30.21;99734.88;5066728;28;20021;-61
2021/12/15 12:30:29;;;;;;;6.13;4.15;;;;;;;19.49;30.10;99738.56;5066722;28;20024;-61
2021/12/15 12:32:55;;;;;;;6.40;3.88;;;;;;;19.47;30.02;99738.75;5066722;28;20028;-60
2021/12/15 12:35:26;;;;;;;5.72;3.58;;;;;;;19.46;30.06;99745.13;5085159;28;20024;-61
2021/12/15 12:37:55;;;;;;;5.55;3.78;;;;;;;19.46;30.14;99742.44;5086776;28;20114;-60
2021/12/15 12:40:25;;;;;;;7.10;4.03;;;;;;;19.45;30.17;99743.47;5086765;28;20030;-61
2021/12/15 12:42:51;;;;;;;5.18;3.25;;;;;;;19.46;30.17;99742.44;5086139;28;20020;-58
2021/12/15 12:45:41;;;;;;;5.50;3.65;;;;;;;19.46;30.18;99738.91;5085652;28;20154;-61
2021/12/15 12:59:25;;;;;;;4.57;3.38;;;;;;;19.34;30.09;99738.44;5070233;28;20269;-58
2021/12/15 13:01:51;;;;;;;4.68;2.80;;;;;;;19.34;30.05;99727.72;5030203;28;20190;-59
2021/12/15 13:04:17;;;;;;;5.45;3.50;;;;;;;19.34;30.10;99733.94;5044509;28;20204;-59